Time;durP1;ratioP1;P1;durP2;ratioP2;P2;SDS_P1;SDS_P2;PMS_P1;PMS_P2;Temp;Humidity;BMP_temperature;BMP_pressure;BME280_temperature;BME280_humidity;BME280_pressure;Samples;Min_cycle;Max_cycle;Signal;HPM_P1;HPM_P2
2023/05/20 00:00:32;;;;;;;4.07;2.28;;;13.50;99.90;;;;;;5055060;28;20233;-76
2023/05/20 00:03:03;;;;;;;4.15;2.20;;;13.60;99.90;;;;;;5054862;28;20653;-74
2023/05/20 00:05:34;;;;;;;3.63;2.22;;;13.70;99.90;;;;;;5050745;28;20548;-76
2023/05/20 00:08:08;;;;;;;4.38;2.20;;;13.90;99.90;;;;;;5052496;28;20197;-74
2023/05/20 00:10:40;;;;;;;2.88;2.20;;;14.00;99.90;;;;;;5052551;28;20194;-76
2023/05/20 00:13:11;;;;;;;3.38;2.10;;;14.10;99.90;;;;;;5055837;28;20190;-75
2023/05/20 00:15:42;;;;;;;2.90;1.98;;;14.30;99.90;;;;;;5056225;28;20217;-74
2023/05/20 00:18:13;;;;;;;2.53;1.85;;;14.40;99.90;;;;;;5056417;28;20206;-75
2023/05/20 00:20:44;;;;;;;2.08;1.63;;;14.40;99.90;;;;;;5053000;28;20679;-75
2023/05/20 00:23:17;;;;;;;3.10;2.22;;;14.50;99.90;;;;;;5055736;28;20189;-76
2023/05/20 00:25:48;;;;;;;12.05;6.88;;;14.60;99.90;;;;;;5056138;28;20186;-74
2023/05/20 00:28:22;;;;;;;10.38;6.95;;;14.70;99.90;;;;;;5055948;28;20190;-74
2023/05/20 00:30:53;;;;;;;4.50;3.22;;;14.80;99.90;;;;;;5056016;28;20225;-76
2023/05/20 00:33:24;;;;;;;2.20;1.90;;;15.00;99.90;;;;;;5052714;28;20530;-75
2023/05/20 00:35:55;;;;;;;2.22;1.75;;;15.10;99.90;;;;;;5055979;28;20221;-75
2023/05/20 00:38:28;;;;;;;1.90;1.70;;;15.20;99.90;;;;;;5047683;28;20228;-74
2023/05/20 00:41:00;;;;;;;3.25;1.70;;;15.20;99.90;;;;;;5040331;28;20205;-75
2023/05/20 00:43:31;;;;;;;3.28;1.35;;;15.30;99.90;;;;;;5055723;28;20591;-78
2023/05/20 00:46:03;;;;;;;2.50;1.70;;;15.40;99.90;;;;;;5055872;28;20196;-75
2023/05/20 00:48:41;;;;;;;3.38;1.50;;;15.50;99.90;;;;;;5055774;28;20190;-76
2023/05/20 00:51:13;;;;;;;22.20;14.00;;;15.60;99.90;;;;;;5055566;28;20251;-77
2023/05/20 00:53:47;;;;;;;7.07;5.10;;;15.70;99.90;;;;;;5055429;28;20198;-75
2023/05/20 00:56:18;;;;;;;1.90;1.27;;;15.80;99.90;;;;;;5052623;28;20213;-74
2023/05/20 00:58:50;;;;;;;2.90;1.20;;;15.90;99.90;;;;;;5047556;28;20736;-73
2023/05/20 01:01:21;;;;;;;1.30;1.05;;;16.00;99.90;;;;;;5075439;28;20236;-73
2023/05/20 01:03:55;;;;;;;0.73;0.60;;;16.20;99.90;;;;;;5062418;28;20193;-74
2023/05/20 01:06:27;;;;;;;0.88;0.70;;;16.30;99.90;;;;;;5055558;28;20194;-72
2023/05/20 01:09:00;;;;;;;2.83;1.10;;;16.30;99.90;;;;;;5049858;28;20623;-73
2023/05/20 01:11:36;;;;;;;1.20;1.02;;;16.30;99.90;;;;;;5052654;28;20201;-74
2023/05/20 01:14:10;;;;;;;1.67;1.00;;;16.40;99.90;;;;;;5055252;28;20204;-73
2023/05/20 01:16:42;;;;;;;1.40;1.00;;;16.50;99.90;;;;;;5045832;28;20221;-74
2023/05/20 01:19:23;;;;;;;2.65;1.00;;;16.50;99.90;;;;;;5055172;28;20236;-78
2023/05/20 01:21:57;;;;;;;1.42;0.85;;;16.50;99.90;;;;;;5055051;28;20686;-74
2023/05/20 01:24:30;;;;;;;2.03;0.77;;;16.70;99.90;;;;;;5054454;28;20276;-73
2023/05/20 01:27:01;;;;;;;0.70;0.70;;;16.80;99.90;;;;;;5054450;28;20213;-74
2023/05/20 01:29:33;;;;;;;1.00;0.80;;;16.90;99.90;;;;;;5046224;28;20201;-74
2023/05/20 01:32:07;;;;;;;1.50;0.88;;;17.00;99.90;;;;;;5055133;28;20267;-74
2023/05/20 01:34:40;;;;;;;0.90;0.80;;;17.10;99.90;;;;;;5054861;28;20189;-75
2023/05/20 01:37:12;;;;;;;1.60;0.73;;;17.00;99.90;;;;;;5054749;28;20189;-73
2023/05/20 01:39:47;;;;;;;2.05;0.73;;;16.90;99.90;;;;;;5043342;28;20252;-76
2023/05/20 01:42:19;;;;;;;0.70;0.60;;;16.90;99.90;;;;;;5052530;28;20205;-75
2023/05/20 01:44:50;;;;;;;0.95;0.40;;;17.00;99.90;;;;;;5047923;28;20194;-73
2023/05/20 01:47:21;;;;;;;0.82;0.60;;;17.10;99.90;;;;;;5043123;28;20200;-75
2023/05/20 01:49:52;;;;;;;1.50;0.70;;;17.00;99.90;;;;;;5064744;28;20200;-73
2023/05/20 01:52:24;;;;;;;1.40;0.63;;;17.10;99.90;;;;;;5051418;28;20205;-75
2023/05/20 01:54:57;;;;;;;1.80;0.70;;;17.00;99.90;;;;;;5051457;28;20205;-77
2023/05/20 01:57:28;;;;;;;2.45;0.80;;;17.10;99.90;;;;;;5041189;28;20197;-76
2023/05/20 01:59:59;;;;;;;0.73;0.70;;;17.10;99.90;;;;;;5044801;28;20606;-76
2023/05/20 02:02:30;;;;;;;0.60;0.60;;;17.10;99.90;;;;;;5035971;28;20204;-76
2023/05/20 02:05:01;;;;;;;1.05;0.60;;;17.20;99.90;;;;;;5053389;28;20198;-74
2023/05/20 02:07:33;;;;;;;1.42;0.63;;;17.30;99.90;;;;;;5054316;28;20185;-75
2023/05/20 02:10:07;;;;;;;1.55;0.70;;;17.20;99.90;;;;;;5053925;28;20222;-75
2023/05/20 02:12:38;;;;;;;0.65;0.60;;;17.20;99.90;;;;;;5054105;28;20556;-75
2023/05/20 02:15:10;;;;;;;0.85;0.70;;;17.30;99.90;;;;;;5052274;28;20195;-73
2023/05/20 02:17:42;;;;;;;1.00;0.70;;;17.40;99.90;;;;;;5063823;28;20212;-74
2023/05/20 02:20:13;;;;;;;0.60;0.60;;;17.40;99.90;;;;;;5073977;28;20601;-73
2023/05/20 02:22:45;;;;;;;3.10;0.70;;;17.40;99.90;;;;;;5074026;28;20189;-74
2023/05/20 02:25:18;;;;;;;0.93;0.60;;;17.50;99.90;;;;;;5055462;28;20205;-74
2023/05/20 02:27:49;;;;;;;0.50;0.50;;;17.60;99.90;;;;;;5072285;28;20207;-73
2023/05/20 02:30:20;;;;;;;1.58;0.73;;;17.40;99.90;;;;;;5049919;28;20190;-73
2023/05/20 02:32:51;;;;;;;2.30;0.73;;;17.40;99.90;;;;;;5044484;28;20233;-73
2023/05/20 02:35:23;;;;;;;2.22;0.60;;;17.50;99.90;;;;;;5041665;28;20218;-78
2023/05/20 02:37:54;;;;;;;1.35;0.57;;;17.60;99.90;;;;;;5053861;28;20223;-74
2023/05/20 02:40:27;;;;;;;1.08;0.60;;;17.60;99.90;;;;;;5047189;28;20198;-74
2023/05/20 02:42:58;;;;;;;4.28;0.50;;;17.60;99.90;;;;;;5053608;28;20198;-76
2023/05/20 02:45:29;;;;;;;0.50;0.40;;;17.70;99.90;;;;;;5048255;28;20202;-77
2023/05/20 02:48:00;;;;;;;1.48;0.70;;;17.70;99.90;;;;;;5049684;28;20197;-77
2023/05/20 02:50:31;;;;;;;1.38;0.60;;;17.70;99.90;;;;;;5043995;28;20289;-78
2023/05/20 02:53:02;;;;;;;1.92;0.68;;;17.90;99.90;;;;;;5049960;28;20208;-74
2023/05/20 02:55:37;;;;;;;0.60;0.60;;;18.00;99.90;;;;;;5068776;28;20249;-77
2023/05/20 02:58:08;;;;;;;2.63;0.75;;;18.10;99.90;;;;;;5048956;28;20729;-77
2023/05/20 03:00:39;;;;;;;0.95;0.60;;;18.20;99.90;;;;;;5053120;28;20235;-76
2023/05/20 03:03:12;;;;;;;1.25;0.88;;;18.20;99.90;;;;;;5043268;28;20201;-76
2023/05/20 03:05:44;;;;;;;1.23;0.60;;;18.20;99.90;;;;;;5052000;28;20288;-76
2023/05/20 03:08:16;;;;;;;0.77;0.63;;;18.20;99.90;;;;;;5054826;28;20750;-74
2023/05/20 03:10:49;;;;;;;0.52;0.52;;;18.20;99.90;;;;;;5053047;28;20189;-80
2023/05/20 03:13:20;;;;;;;1.52;0.57;;;18.30;99.90;;;;;;5062444;28;20721;-76
2023/05/20 03:15:51;;;;;;;2.03;0.60;;;18.40;99.90;;;;;;5056753;28;20213;-79
2023/05/20 03:18:22;;;;;;;1.00;0.50;;;18.40;99.90;;;;;;5054488;28;20193;-78
2023/05/20 03:20:53;;;;;;;2.05;0.60;;;18.40;99.90;;;;;;5053024;28;20189;-75
2023/05/20 03:23:24;;;;;;;0.57;0.52;;;18.40;99.90;;;;;;5052769;28;20276;-77
2023/05/20 03:25:57;;;;;;;0.70;0.50;;;18.40;99.90;;;;;;5053075;28;20189;-75
2023/05/20 03:28:28;;;;;;;1.00;0.43;;;18.30;99.90;;;;;;5059056;28;20681;-77
2023/05/20 03:31:01;;;;;;;0.68;0.68;;;18.10;99.90;;;;;;5056724;28;20202;-80
2023/05/20 03:33:32;;;;;;;1.02;0.60;;;18.10;99.90;;;;;;5055548;28;20205;-76
2023/05/20 03:36:03;;;;;;;2.03;0.70;;;18.20;99.90;;;;;;5059862;28;20580;-78
2023/05/20 03:38:34;;;;;;;0.60;0.43;;;18.20;99.90;;;;;;5050726;28;20197;-77
2023/05/20 03:41:07;;;;;;;1.30;0.45;;;18.20;99.90;;;;;;5051929;28;20558;-76
2023/05/20 03:43:38;;;;;;;0.95;0.60;;;18.30;99.90;;;;;;5045157;28;20645;-76
2023/05/20 03:46:10;;;;;;;2.20;0.60;;;18.30;99.90;;;;;;5052305;28;20197;-78
2023/05/20 03:48:41;;;;;;;0.43;0.43;;;18.20;99.90;;;;;;5052103;28;20586;-74
2023/05/20 03:51:13;;;;;;;1.40;0.40;;;18.20;99.90;;;;;;5049081;28;20905;-76
2023/05/20 03:53:45;;;;;;;1.08;0.60;;;18.20;99.90;;;;;;5070892;28;20211;-76
2023/05/20 03:56:18;;;;;;;2.08;0.60;;;18.30;99.90;;;;;;5066540;28;20228;-79
2023/05/20 03:58:49;;;;;;;3.90;0.65;;;18.30;99.90;;;;;;5050031;28;20221;-75
2023/05/20 04:01:20;;;;;;;2.17;0.60;;;18.30;99.90;;;;;;5037434;28;20233;-80
2023/05/20 04:03:51;;;;;;;1.15;0.60;;;18.30;99.90;;;;;;5052324;28;20190;-77
2023/05/20 04:06:22;;;;;;;0.60;0.50;;;18.30;99.90;;;;;;5053150;28;20678;-77
2023/05/20 04:08:54;;;;;;;0.77;0.50;;;18.30;99.90;;;;;;5050967;28;20295;-77
2023/05/20 04:11:27;;;;;;;0.82;0.50;;;18.30;99.90;;;;;;5054446;28;20320;-78
2023/05/20 04:13:59;;;;;;;0.43;0.43;;;18.40;99.90;;;;;;5054933;28;20284;-80
2023/05/20 04:16:30;;;;;;;0.52;0.52;;;18.30;99.90;;;;;;5045263;28;20799;-82
2023/05/20 04:19:02;;;;;;;0.45;0.40;;;18.30;99.90;;;;;;5050008;28;20202;-82
2023/05/20 04:21:33;;;;;;;1.30;0.43;;;18.40;99.90;;;;;;5055167;28;20197;-81
2023/05/20 04:24:04;;;;;;;0.70;0.40;;;18.40;99.90;;;;;;5045811;28;20202;-80
2023/05/20 04:26:37;;;;;;;0.55;0.55;;;18.50;99.90;;;;;;5055320;28;20208;-80
2023/05/20 04:29:08;;;;;;;0.70;0.50;;;18.50;99.90;;;;;;5042614;28;20202;-82
2023/05/20 04:31:39;;;;;;;0.55;0.43;;;18.50;99.90;;;;;;5056335;28;20209;-80
2023/05/20 04:34:11;;;;;;;0.40;0.40;;;18.40;99.90;;;;;;5040382;28;20207;-83
2023/05/20 04:36:42;;;;;;;0.57;0.50;;;18.40;99.90;;;;;;5054852;28;20292;-78
2023/05/20 04:39:14;;;;;;;0.40;0.40;;;18.40;99.90;;;;;;5055776;28;20213;-77
2023/05/20 04:41:48;;;;;;;1.15;0.52;;;18.40;99.90;;;;;;5060036;28;20193;-85
2023/05/20 04:44:19;;;;;;;2.90;0.60;;;18.50;99.90;;;;;;5060579;28;20243;-78
2023/05/20 04:46:50;;;;;;;0.65;0.60;;;18.50;99.90;;;;;;5046382;28;20276;-77
2023/05/20 04:49:21;;;;;;;0.57;0.57;;;18.60;99.90;;;;;;5045878;28;20193;-75
2023/05/20 04:51:54;;;;;;;1.02;0.55;;;18.70;99.90;;;;;;5050005;28;20645;-80
2023/05/20 04:54:25;;;;;;;3.53;1.40;;;18.80;99.90;;;;;;5053645;28;20684;-80
2023/05/20 04:56:58;;;;;;;1.17;0.98;;;18.80;99.90;;;;;;5062808;28;20217;-79
2023/05/20 04:59:29;;;;;;;1.75;0.60;;;18.80;99.90;;;;;;5053712;28;20198;-77
2023/05/20 05:02:00;;;;;;;0.82;0.60;;;18.80;99.90;;;;;;5065670;28;20202;-77
2023/05/20 05:04:31;;;;;;;0.40;0.40;;;18.80;99.90;;;;;;5047161;28;20198;-77
2023/05/20 05:07:04;;;;;;;2.33;0.80;;;18.80;99.90;;;;;;5054969;28;20563;-77
2023/05/20 05:09:35;;;;;;;0.50;0.45;;;18.70;99.90;;;;;;5075220;28;20217;-78
2023/05/20 05:12:08;;;;;;;2.65;0.50;;;18.50;99.90;;;;;;5054042;28;20592;-81
2023/05/20 05:14:39;;;;;;;0.65;0.65;;;18.30;99.90;;;;;;5054579;28;20205;-78
2023/05/20 05:17:10;;;;;;;1.83;0.45;;;18.30;99.90;;;;;;5052318;28;20733;-80
2023/05/20 05:19:41;;;;;;;3.30;0.60;;;18.40;99.90;;;;;;5043244;28;20197;-78
2023/05/20 05:22:13;;;;;;;2.85;0.40;;;18.40;99.90;;;;;;5061434;28;20202;-81
2023/05/20 05:24:44;;;;;;;0.57;0.30;;;18.40;99.90;;;;;;5053164;28;20193;-78
2023/05/20 05:27:17;;;;;;;0.63;0.40;;;18.40;99.90;;;;;;5053476;28;20222;-78
2023/05/20 05:29:48;;;;;;;0.70;0.70;;;18.30;99.90;;;;;;5047321;28;20256;-79
2023/05/20 05:32:19;;;;;;;0.40;0.40;;;18.20;99.90;;;;;;5063935;28;20212;-76
2023/05/20 05:34:51;;;;;;;0.55;0.43;;;18.10;99.90;;;;;;5045793;28;20567;-77
2023/05/20 05:37:22;;;;;;;1.95;0.40;;;18.00;99.90;;;;;;5042648;28;20217;-81
2023/05/20 05:39:54;;;;;;;0.40;0.40;;;17.90;99.90;;;;;;5048713;28;20197;-78
2023/05/20 05:42:37;;;;;;;0.57;0.50;;;17.70;99.90;;;;;;5046553;28;20198;-83
2023/05/20 05:45:09;;;;;;;0.93;0.60;;;17.70;99.90;;;;;;5045224;28;20766;-83
2023/05/20 05:48:06;;;;;;;1.65;0.45;;;17.70;99.90;;;;;;5067221;28;20193;-81
2023/05/20 05:50:39;;;;;;;0.50;0.47;;;17.70;99.90;;;;;;5044373;28;20241;-82
2023/05/20 05:53:10;;;;;;;0.65;0.40;;;17.80;99.90;;;;;;5052652;28;20224;-82
2023/05/20 05:55:42;;;;;;;1.33;0.40;;;17.80;99.90;;;;;;5046021;28;20570;-80
2023/05/20 05:58:15;;;;;;;0.70;0.45;;;17.80;99.90;;;;;;5068854;28;20239;-81
2023/05/20 06:00:46;;;;;;;0.70;0.60;;;17.70;99.90;;;;;;5048726;28;20226;-79
2023/05/20 06:03:17;;;;;;;1.33;0.40;;;17.70;99.90;;;;;;5053647;28;20197;-80
2023/05/20 06:05:49;;;;;;;0.60;0.50;;;17.60;99.90;;;;;;5054476;28;20193;-81
2023/05/20 06:08:20;;;;;;;0.50;0.45;;;17.60;99.90;;;;;;5071196;28;20573;-79
2023/05/20 06:10:51;;;;;;;0.60;0.60;;;17.60;99.90;;;;;;5038077;28;20190;-84
2023/05/20 06:13:25;;;;;;;1.83;0.80;;;17.60;99.90;;;;;;5050815;28;20209;-83
2023/05/20 06:15:56;;;;;;;0.50;0.50;;;17.60;99.90;;;;;;5064319;28;20195;-81
2023/05/20 06:18:27;;;;;;;1.58;0.50;;;17.60;99.90;;;;;;5060003;28;20296;-83
2023/05/20 06:21:01;;;;;;;0.57;0.50;;;17.50;99.90;;;;;;5047921;28;20205;-81
2023/05/20 06:23:32;;;;;;;2.45;1.17;;;17.50;99.90;;;;;;5043806;28;20228;-83
2023/05/20 06:26:03;;;;;;;0.50;0.50;;;17.50;99.90;;;;;;5052625;28;20524;-82
2023/05/20 06:28:36;;;;;;;0.63;0.55;;;17.40;99.90;;;;;;5072796;28;20193;-85
2023/05/20 06:31:08;;;;;;;0.70;0.70;;;17.30;99.90;;;;;;5066598;28;20197;-86
2023/05/20 06:33:39;;;;;;;1.15;0.45;;;17.20;99.90;;;;;;5068491;28;20194;-83
2023/05/20 06:36:10;;;;;;;0.85;0.50;;;17.20;99.90;;;;;;5053823;28;20200;-82
2023/05/20 06:38:41;;;;;;;0.47;0.47;;;17.20;99.90;;;;;;5051597;28;20220;-83
2023/05/20 06:41:12;;;;;;;0.40;0.40;;;17.10;99.90;;;;;;5058194;28;20193;-83
2023/05/20 06:43:45;;;;;;;1.42;0.60;;;17.10;99.90;;;;;;5058048;28;20284;-81
2023/05/20 06:46:16;;;;;;;1.00;0.65;;;17.00;99.90;;;;;;5072003;28;20527;-81
2023/05/20 06:48:47;;;;;;;0.77;0.55;;;16.90;99.90;;;;;;5073553;28;20185;-82
2023/05/20 06:51:19;;;;;;;0.70;0.70;;;16.80;99.90;;;;;;5073469;28;20194;-82
2023/05/20 06:53:50;;;;;;;0.82;0.70;;;16.80;99.90;;;;;;5062979;28;20207;-81
2023/05/20 06:56:21;;;;;;;0.98;0.60;;;16.70;99.90;;;;;;5053484;28;20728;-82
2023/05/20 06:58:54;;;;;;;1.30;0.68;;;16.70;99.90;;;;;;5053178;28;20189;-83
2023/05/20 07:01:25;;;;;;;1.02;0.50;;;16.60;99.90;;;;;;5053353;28;20229;-81
2023/05/20 07:03:56;;;;;;;0.82;0.80;;;16.60;99.90;;;;;;5052774;28;20228;-81
2023/05/20 07:06:29;;;;;;;1.25;0.77;;;16.50;99.90;;;;;;5053328;28;20623;-81
2023/05/20 07:09:00;;;;;;;3.00;0.80;;;16.50;99.90;;;;;;5053129;28;20284;-82
2023/05/20 07:11:34;;;;;;;1.58;0.90;;;16.40;99.90;;;;;;5051525;28;20194;-82
2023/05/20 07:14:09;;;;;;;1.83;1.20;;;16.30;99.90;;;;;;5041426;28;20272;-82
2023/05/20 07:16:40;;;;;;;1.08;0.80;;;16.30;99.90;;;;;;5053150;28;20190;-82
2023/05/20 07:19:12;;;;;;;0.75;0.73;;;16.20;99.90;;;;;;5050191;28;20637;-82
2023/05/20 07:21:43;;;;;;;1.80;0.95;;;16.20;99.90;;;;;;5043021;28;20565;-82
2023/05/20 07:24:15;;;;;;;1.27;1.08;;;16.20;99.90;;;;;;5045829;28;20206;-82
2023/05/20 07:26:46;;;;;;;2.00;1.10;;;16.10;99.90;;;;;;5034070;28;20190;-84
2023/05/20 07:29:20;;;;;;;1.30;1.02;;;16.10;99.90;;;;;;5033251;28;20221;-83
2023/05/20 07:31:51;;;;;;;2.72;1.42;;;16.00;99.90;;;;;;5041785;28;20272;-83
2023/05/20 07:34:23;;;;;;;1.27;1.13;;;16.00;99.90;;;;;;5050537;28;20637;-83
2023/05/20 07:36:55;;;;;;;1.63;1.13;;;15.90;99.90;;;;;;5049448;28;20189;-84
2023/05/20 07:39:26;;;;;;;1.90;1.30;;;15.90;99.90;;;;;;5057745;28;20197;-82
2023/05/20 07:41:57;;;;;;;2.08;1.52;;;15.80;99.90;;;;;;5059598;28;20199;-83
2023/05/20 07:44:30;;;;;;;2.35;1.70;;;15.80;99.90;;;;;;5070695;28;20189;-83
2023/05/20 07:47:01;;;;;;;3.80;2.05;;;15.70;99.90;;;;;;5051581;28;20211;-80
2023/05/20 07:49:32;;;;;;;4.15;2.97;;;15.70;99.90;;;;;;5050744;28;20197;-81
2023/05/20 07:52:02;;;;;;;4.95;4.10;;;15.60;99.90;;;;;;5044167;28;20202;-81
2023/05/20 07:54:33;;;;;;;3.63;2.88;;;15.60;99.90;;;;;;5053551;28;20197;-81
2023/05/20 07:57:04;;;;;;;3.90;2.97;;;15.60;99.90;;;;;;5045079;28;20584;-81
2023/05/20 07:59:37;;;;;;;3.47;2.30;;;15.50;99.90;;;;;;5047750;28;20633;-81
2023/05/20 08:02:08;;;;;;;3.60;2.08;;;15.50;99.90;;;;;;5052810;28;20266;-83
2023/05/20 08:04:39;;;;;;;3.42;1.88;;;15.50;99.90;;;;;;5052342;28;20193;-83
2023/05/20 08:07:09;;;;;;;3.55;1.70;;;15.40;99.90;;;;;;5044877;28;20197;-81
2023/05/20 08:09:40;;;;;;;2.17;1.73;;;15.40;99.90;;;;;;5032614;28;20198;-82
2023/05/20 08:12:11;;;;;;;2.50;1.90;;;15.40;99.90;;;;;;5032503;28;20657;-82
2023/05/20 08:14:44;;;;;;;2.58;1.85;;;15.40;99.90;;;;;;5042652;28;20930;-82
2023/05/20 08:17:15;;;;;;;2.70;1.80;;;15.40;99.90;;;;;;5052005;28;20213;-83
2023/05/20 08:19:46;;;;;;;3.05;1.77;;;15.30;99.90;;;;;;5049871;28;20200;-81
2023/05/20 08:22:16;;;;;;;2.83;2.10;;;15.30;99.90;;;;;;5065081;28;20197;-82
2023/05/20 08:24:47;;;;;;;3.53;2.22;;;15.30;99.90;;;;;;5035811;28;20198;-81
2023/05/20 08:27:18;;;;;;;4.22;2.78;;;15.20;99.90;;;;;;5031014;28;20204;-81
2023/05/20 08:30:00;;;;;;;3.17;2.28;;;15.20;99.90;;;;;;5040448;28;20201;-83
2023/05/20 08:32:32;;;;;;;4.03;2.30;;;15.20;99.90;;;;;;5055087;28;20211;-82
2023/05/20 08:35:03;;;;;;;3.20;2.40;;;15.20;99.90;;;;;;5043079;28;20201;-82
2023/05/20 08:37:34;;;;;;;3.80;2.50;;;15.10;99.90;;;;;;5056848;28;20224;-80
2023/05/20 08:40:06;;;;;;;3.35;2.40;;;15.10;99.90;;;;;;5055620;28;20193;-81
2023/05/20 08:42:37;;;;;;;3.22;2.20;;;15.00;99.90;;;;;;5058694;28;20246;-80
2023/05/20 08:45:12;;;;;;;4.10;1.95;;;15.00;99.90;;;;;;5050006;28;20204;-81
2023/05/20 08:47:44;;;;;;;4.25;2.28;;;15.00;99.90;;;;;;5051851;28;20208;-82
2023/05/20 08:50:16;;;;;;;2.75;2.20;;;14.90;99.90;;;;;;5050796;28;20750;-81
2023/05/20 08:52:48;;;;;;;3.30;2.50;;;14.90;99.90;;;;;;5056298;28;20204;-81
2023/05/20 08:55:22;;;;;;;3.92;2.92;;;14.80;99.90;;;;;;5070104;28;20200;-81
2023/05/20 08:57:54;;;;;;;4.13;2.55;;;14.70;99.90;;;;;;5060481;28;20217;-80
2023/05/20 09:00:28;;;;;;;5.35;2.90;;;14.70;99.90;;;;;;5047596;28;20230;-81
2023/05/20 09:02:59;;;;;;;4.32;3.03;;;14.60;99.90;;;;;;5036491;28;20251;-81
2023/05/20 09:05:30;;;;;;;5.00;2.95;;;14.50;99.90;;;;;;5044732;28;20203;-83
2023/05/20 09:08:08;;;;;;;6.57;3.30;;;14.40;99.90;;;;;;5054180;28;20221;-80
2023/05/20 09:10:40;;;;;;;5.18;3.22;;;14.30;99.90;;;;;;5055712;28;20640;-80
2023/05/20 09:13:11;;;;;;;4.55;3.10;;;14.20;99.90;;;;;;5050932;28;20197;-81
2023/05/20 09:15:44;;;;;;;4.25;3.20;;;14.20;99.90;;;;;;5061399;28;20208;-80
2023/05/20 09:18:14;;;;;;;5.05;3.40;;;14.20;99.90;;;;;;5067177;28;20219;-80
2023/05/20 09:20:47;;;;;;;5.22;3.72;;;14.10;99.90;;;;;;5047893;28;20189;-81
2023/05/20 09:23:20;;;;;;;4.68;3.58;;;14.10;99.90;;;;;;5040205;28;20649;-80
2023/05/20 09:25:56;;;;;;;6.38;4.28;;;14.00;99.90;;;;;;5056108;28;20291;-80
2023/05/20 09:28:27;;;;;;;7.68;4.35;;;13.90;99.90;;;;;;5051785;28;20631;-81
2023/05/20 09:31:03;;;;;;;5.95;4.30;;;13.90;99.90;;;;;;5058346;28;20223;-81
2023/05/20 09:33:34;;;;;;;7.35;4.80;;;13.70;99.90;;;;;;5070594;28;20266;-80
2023/05/20 09:36:11;;;;;;;7.25;5.00;;;13.60;99.90;;;;;;5044729;28;20204;-80
2023/05/20 09:38:43;;;;;;;8.43;4.72;;;13.40;99.90;;;;;;5051795;28;20210;-82
2023/05/20 09:41:15;;;;;;;7.15;4.55;;;13.30;99.90;;;;;;5055879;28;20201;-81
2023/05/20 09:43:47;;;;;;;7.18;5.20;;;13.20;99.90;;;;;;5062906;28;20197;-82
2023/05/20 09:46:20;;;;;;;15.10;6.45;;;13.30;99.90;;;;;;5054438;28;20197;-83
2023/05/20 09:48:52;;;;;;;8.30;5.97;;;13.20;99.90;;;;;;5059303;28;20198;-81
2023/05/20 09:51:23;;;;;;;8.88;5.93;;;13.10;99.90;;;;;;5053666;28;20217;-80
2023/05/20 09:53:55;;;;;;;7.32;5.18;;;13.10;99.90;;;;;;5046505;28;20205;-82
2023/05/20 09:56:28;;;;;;;9.57;5.78;;;13.00;99.90;;;;;;5046178;28;20672;-81
2023/05/20 09:59:02;;;;;;;7.90;5.38;;;12.90;99.90;;;;;;5053007;28;20213;-84
2023/05/20 10:01:35;;;;;;;15.10;9.60;;;12.80;99.90;;;;;;5051136;28;20233;-83
2023/05/20 10:04:08;;;;;;;15.02;10.32;;;12.70;99.90;;;;;;5068221;28;20186;-83
2023/05/20 10:06:52;;;;;;;11.32;7.32;;;12.70;99.90;;;;;;5052195;28;20190;-82
2023/05/20 10:09:42;;;;;;;11.40;7.03;;;12.60;99.90;;;;;;5042635;28;20285;-82
2023/05/20 10:12:22;;;;;;;12.40;6.35;;;12.50;99.90;;;;;;5061999;28;20384;-82
2023/05/20 10:15:04;;;;;;;9.95;5.78;;;12.60;99.90;;;;;;5054071;28;20201;-82
2023/05/20 10:17:46;;;;;;;10.98;5.88;;;12.60;99.90;;;;;;5053936;28;20190;-82
2023/05/20 10:20:17;;;;;;;8.75;5.65;;;12.70;99.90;;;;;;5053999;28;20193;-83
2023/05/20 10:22:58;;;;;;;10.80;5.22;;;12.70;99.90;;;;;;5054018;28;20221;-82
2023/05/20 10:25:30;;;;;;;9.13;5.50;;;12.70;99.90;;;;;;5054001;28;20220;-85
2023/05/20 10:28:12;;;;;;;10.48;6.00;;;12.60;99.90;;;;;;5054154;28;20198;-85
2023/05/20 10:30:52;;;;;;;11.43;6.30;;;12.60;99.90;;;;;;5051971;28;20200;-84
2023/05/20 10:33:26;;;;;;;12.10;5.63;;;12.50;99.90;;;;;;5048418;28;20661;-83
2023/05/20 10:36:00;;;;;;;10.05;6.22;;;12.50;99.90;;;;;;5050616;28;20204;-85
2023/05/20 10:38:31;;;;;;;9.55;5.72;;;12.50;99.90;;;;;;5053826;28;20213;-83
2023/05/20 10:41:12;;;;;;;10.35;5.95;;;12.50;99.90;;;;;;5055542;28;20198;-84
2023/05/20 10:43:43;;;;;;;10.45;6.00;;;12.40;99.90;;;;;;5048697;28;20231;-84
2023/05/20 10:46:21;;;;;;;11.43;6.50;;;12.30;99.90;;;;;;5050410;28;20204;-84
2023/05/20 10:48:54;;;;;;;11.80;5.95;;;12.20;99.90;;;;;;5071354;28;20680;-84
2023/05/20 10:51:27;;;;;;;10.45;5.88;;;12.10;99.90;;;;;;5067735;28;20216;-84
2023/05/20 10:53:59;;;;;;;8.98;5.03;;;12.10;99.90;;;;;;5045353;28;20661;-84
2023/05/20 10:56:30;;;;;;;8.35;5.05;;;12.00;99.90;;;;;;5048813;28;20193;-84
2023/05/20 10:59:03;;;;;;;9.48;5.10;;;11.90;99.90;;;;;;5053147;28;20275;-84
2023/05/20 11:01:34;;;;;;;9.05;5.40;;;12.00;99.90;;;;;;5056074;28;20240;-84
2023/05/20 11:04:08;;;;;;;9.00;5.20;;;12.00;99.90;;;;;;5047719;28;20197;-84
2023/05/20 11:06:39;;;;;;;9.98;5.40;;;11.90;99.90;;;;;;5050382;28;20219;-83
2023/05/20 11:09:10;;;;;;;9.85;5.07;;;12.00;99.90;;;;;;5050921;28;20193;-85
2023/05/20 11:11:41;;;;;;;8.55;4.50;;;12.00;99.90;;;;;;5067873;28;20196;-83
2023/05/20 11:14:13;;;;;;;7.85;4.82;;;12.10;99.90;;;;;;5052706;28;20660;-83
2023/05/20 11:16:45;;;;;;;10.45;4.97;;;12.10;99.90;;;;;;5053218;28;20190;-84
2023/05/20 11:19:20;;;;;;;9.18;5.32;;;12.10;99.90;;;;;;5053076;28;20688;-83
2023/05/20 11:21:51;;;;;;;11.02;5.28;;;12.10;99.90;;;;;;5049245;28;20198;-84
2023/05/20 11:24:27;;;;;;;10.30;5.30;;;12.10;99.90;;;;;;5053157;28;20197;-84
2023/05/20 11:26:59;;;;;;;11.50;5.43;;;12.10;99.90;;;;;;5052896;28;20606;-84
2023/05/20 11:29:31;;;;;;;9.95;5.03;;;12.10;99.90;;;;;;5053010;28;20197;-83
2023/05/20 11:32:02;;;;;;;9.23;5.13;;;12.00;99.90;;;;;;5053382;28;20280;-84
2023/05/20 11:34:39;;;;;;;8.23;4.40;;;11.90;99.90;;;;;;5052840;28;20189;-84
2023/05/20 11:37:14;;;;;;;8.45;4.40;;;11.90;99.90;;;;;;5048107;28;20203;-84
2023/05/20 11:39:45;;;;;;;8.20;4.03;;;11.80;99.90;;;;;;5063771;28;20208;-83
2023/05/20 11:42:18;;;;;;;9.15;4.90;;;11.90;99.90;;;;;;5066018;28;20195;-83
2023/05/20 11:44:49;;;;;;;8.80;4.38;;;11.80;99.90;;;;;;5051201;28;20541;-83
2023/05/20 11:47:28;;;;;;;8.18;4.13;;;11.80;99.90;;;;;;5064143;28;20201;-83
2023/05/20 11:50:02;;;;;;;6.30;3.70;;;11.80;99.90;;;;;;5067583;28;20201;-83
2023/05/20 11:52:35;;;;;;;6.78;3.42;;;11.80;99.90;;;;;;5040681;28;20197;-83
2023/05/20 11:55:07;;;;;;;4.25;3.25;;;11.80;99.90;;;;;;5060871;28;20201;-84
2023/05/20 11:57:39;;;;;;;5.13;3.20;;;11.80;99.90;;;;;;5068948;28;20197;-82
2023/05/20 12:00:11;;;;;;;6.70;3.38;;;11.90;99.90;;;;;;5050667;28;20233;-84
2023/05/20 12:02:43;;;;;;;6.22;3.15;;;11.90;99.90;;;;;;5062352;28;20201;-84
2023/05/20 12:05:16;;;;;;;4.32;3.08;;;11.90;99.90;;;;;;5071471;28;20207;-83
2023/05/20 12:07:48;;;;;;;6.63;3.50;;;12.00;99.90;;;;;;5068226;28;20264;-83
2023/05/20 12:10:19;;;;;;;4.82;2.95;;;12.00;99.90;;;;;;5061813;28;20212;-83
2023/05/20 12:12:50;;;;;;;6.32;3.40;;;12.00;99.90;;;;;;5055038;28;20280;-83
2023/05/20 12:15:24;;;;;;;7.07;3.58;;;12.10;99.90;;;;;;5047526;28;20183;-83
2023/05/20 12:17:58;;;;;;;4.35;3.30;;;12.10;99.90;;;;;;5055222;28;20196;-82
2023/05/20 12:20:33;;;;;;;5.38;3.70;;;12.10;99.90;;;;;;5049040;28;20292;-82
2023/05/20 12:23:04;;;;;;;5.70;3.20;;;12.10;99.90;;;;;;5056594;28;20224;-84
2023/05/20 12:25:35;;;;;;;8.30;3.60;;;12.20;99.90;;;;;;5056295;28;20201;-83
2023/05/20 12:28:06;;;;;;;6.38;3.72;;;12.20;99.90;;;;;;5054498;28;20197;-85
2023/05/20 12:30:38;;;;;;;7.35;3.88;;;12.30;99.90;;;;;;5045628;28;20203;-84
2023/05/20 12:33:09;;;;;;;5.95;3.42;;;12.20;99.90;;;;;;5048408;28;20208;-84
2023/05/20 12:35:43;;;;;;;5.30;3.30;;;12.30;99.90;;;;;;5056161;28;20212;-83
2023/05/20 12:38:14;;;;;;;5.43;3.28;;;12.30;99.90;;;;;;5043377;28;20201;-83
2023/05/20 12:40:45;;;;;;;7.00;3.10;;;12.30;99.90;;;;;;5058330;28;20203;-83
2023/05/20 12:43:17;;;;;;;3.67;2.70;;;12.40;99.90;;;;;;5064650;28;20281;-83
2023/05/20 12:45:48;;;;;;;3.92;2.80;;;12.40;99.90;;;;;;5054028;28;20197;-85
2023/05/20 12:48:19;;;;;;;5.13;2.63;;;12.40;99.90;;;;;;5050265;28;20540;-83
2023/05/20 12:50:52;;;;;;;3.63;2.70;;;12.40;99.90;;;;;;5050386;28;20194;-83
2023/05/20 12:53:23;;;;;;;4.80;2.63;;;12.40;99.90;;;;;;5040403;28;20240;-83
2023/05/20 12:55:55;;;;;;;3.92;2.40;;;12.50;99.90;;;;;;5051803;28;20189;-82
2023/05/20 12:58:26;;;;;;;4.07;2.80;;;12.50;99.90;;;;;;5070078;28;20555;-84
2023/05/20 13:00:57;;;;;;;2.83;2.40;;;12.50;99.90;;;;;;5067676;28;20307;-83
2023/05/20 13:03:28;;;;;;;4.10;2.50;;;12.50;99.90;;;;;;5063684;28;20557;-84
2023/05/20 13:06:01;;;;;;;3.17;2.38;;;12.50;99.90;;;;;;5070431;28;20584;-83
2023/05/20 13:08:32;;;;;;;3.15;2.33;;;12.50;99.90;;;;;;5046263;28;20204;-86
2023/05/20 13:11:03;;;;;;;5.50;2.17;;;12.50;99.90;;;;;;5071263;28;20197;-87